Time;durP1;ratioP1;P1;durP2;ratioP2;P2;SDS_P1;SDS_P2;PMS_P1;PMS_P2;Temp;Humidity;BMP_temperature;BMP_pressure;BME280_temperature;BME280_humidity;BME280_pressure;Samples;Min_cycle;Max_cycle;Signal;HPM_P1;HPM_P2
2022/10/24 00:01:15;;;;;;;7.90;3.73;;;16.30;99.90;;;;;;5023414;28;20213;-79
2022/10/24 00:03:41;;;;;;;8.40;3.47;;;15.80;99.90;;;;;;5042981;28;20209;-79
2022/10/24 00:06:11;;;;;;;8.40;3.97;;;15.70;99.90;;;;;;5029133;28;20693;-79
2022/10/24 00:08:39;;;;;;;8.77;3.60;;;15.70;99.90;;;;;;5016148;28;20317;-78
2022/10/24 00:11:11;;;;;;;6.93;3.40;;;15.70;99.90;;;;;;5021497;28;20205;-78
2022/10/24 00:13:39;;;;;;;9.30;4.15;;;15.70;99.90;;;;;;5017826;28;20217;-79
2022/10/24 00:16:06;;;;;;;8.63;4.10;;;15.80;99.90;;;;;;5030856;28;20221;-78
2022/10/24 00:18:33;;;;;;;6.53;3.43;;;15.80;99.90;;;;;;5020243;28;20203;-80
2022/10/24 00:21:00;;;;;;;8.65;3.97;;;15.80;99.90;;;;;;5024033;28;20225;-78
2022/10/24 00:23:26;;;;;;;9.90;3.87;;;15.60;99.90;;;;;;5019977;28;20202;-79
2022/10/24 00:25:53;;;;;;;9.98;3.85;;;15.70;99.90;;;;;;5028972;28;20292;-79
2022/10/24 00:28:20;;;;;;;8.23;4.13;;;15.70;99.90;;;;;;5022068;28;20202;-79
2022/10/24 00:30:51;;;;;;;7.25;4.00;;;15.60;99.90;;;;;;5023233;28;20582;-79
2022/10/24 00:33:18;;;;;;;8.90;4.17;;;15.70;99.90;;;;;;5033522;28;20205;-79
2022/10/24 00:35:45;;;;;;;9.82;4.45;;;15.50;99.90;;;;;;5025566;28;20265;-78
2022/10/24 00:38:12;;;;;;;9.57;4.33;;;15.60;99.90;;;;;;5026349;28;20205;-79
2022/10/24 00:40:39;;;;;;;11.45;4.60;;;15.60;99.90;;;;;;5022612;28;20194;-78
2022/10/24 00:43:18;;;;;;;12.27;4.30;;;15.70;99.90;;;;;;5048434;28;20818;-79
2022/10/24 00:45:56;;;;;;;10.37;4.27;;;15.60;99.90;;;;;;5025682;28;20665;-78
2022/10/24 00:48:30;;;;;;;8.77;4.00;;;15.50;99.90;;;;;;5023708;28;20576;-80
2022/10/24 00:51:02;;;;;;;6.93;3.87;;;15.40;99.90;;;;;;5043869;28;20219;-80
2022/10/24 00:53:32;;;;;;;15.00;5.83;;;15.20;99.90;;;;;;5031911;28;20210;-78
2022/10/24 00:56:02;;;;;;;7.50;3.80;;;15.50;99.90;;;;;;5014832;28;20233;-78
2022/10/24 00:58:31;;;;;;;10.30;5.10;;;15.30;99.90;;;;;;5014087;28;20217;-78
2022/10/24 01:00:58;;;;;;;16.13;4.70;;;15.30;99.90;;;;;;5018454;28;20253;-78
2022/10/24 01:03:26;;;;;;;8.50;4.57;;;15.20;99.90;;;;;;5023579;28;20210;-77
2022/10/24 01:06:04;;;;;;;9.53;4.50;;;15.20;99.90;;;;;;5023730;28;20313;-78
2022/10/24 01:08:51;;;;;;;12.30;4.77;;;15.10;99.90;;;;;;5019211;28;20207;-79
2022/10/24 01:11:31;;;;;;;10.50;4.90;;;15.30;99.90;;;;;;5021385;28;20317;-78
2022/10/24 01:14:39;;;;;;;10.73;4.40;;;15.00;99.90;;;;;;5016679;28;20297;-78
2022/10/24 01:17:13;;;;;;;12.10;3.93;;;15.00;99.90;;;;;;5012997;28;20240;-78
2022/10/24 01:20:00;;;;;;;11.50;4.07;;;15.00;99.90;;;;;;5020986;28;20264;-79
2022/10/24 01:22:52;;;;;;;7.27;3.40;;;14.90;99.90;;;;;;5047459;28;20203;-79
2022/10/24 01:25:21;;;;;;;8.93;3.57;;;14.90;99.90;;;;;;5027753;28;20293;-78
2022/10/24 01:27:58;;;;;;;8.30;3.40;;;14.90;99.90;;;;;;5024917;28;20209;-79
2022/10/24 01:30:28;;;;;;;9.40;3.13;;;14.90;99.90;;;;;;5020554;28;20790;-79
2022/10/24 01:33:03;;;;;;;9.47;3.40;;;15.00;99.90;;;;;;5032296;28;20240;-80
2022/10/24 01:35:53;;;;;;;12.47;3.67;;;15.00;99.90;;;;;;5024293;28;20229;-80
2022/10/24 01:38:40;;;;;;;5.43;3.07;;;15.00;99.90;;;;;;5027736;28;20223;-79
2022/10/24 01:41:19;;;;;;;11.03;3.33;;;14.80;99.90;;;;;;5024197;28;20226;-79
2022/10/24 01:43:52;;;;;;;12.03;3.73;;;15.00;99.90;;;;;;5028054;28;20201;-79
2022/10/24 01:46:31;;;;;;;7.67;3.17;;;15.00;99.90;;;;;;5032699;28;20209;-79
2022/10/24 01:49:04;;;;;;;13.27;3.63;;;15.00;99.90;;;;;;5024706;28;20681;-78
2022/10/24 01:51:32;;;;;;;5.70;3.00;;;15.00;99.90;;;;;;5025045;28;20597;-79
2022/10/24 01:54:00;;;;;;;5.63;2.87;;;15.00;99.90;;;;;;5025554;28;21034;-79
2022/10/24 01:56:27;;;;;;;8.73;3.20;;;15.20;99.90;;;;;;5029090;28;20735;-78
2022/10/24 01:59:07;;;;;;;8.17;3.03;;;15.10;99.90;;;;;;5025994;28;20310;-78
2022/10/24 02:01:35;;;;;;;8.23;3.07;;;15.10;99.90;;;;;;5020008;28;20682;-81
2022/10/24 02:04:06;;;;;;;5.33;2.60;;;15.20;99.90;;;;;;5031349;28;20225;-80
2022/10/24 02:06:40;;;;;;;5.57;3.20;;;15.20;99.90;;;;;;5021476;28;20613;-80
2022/10/24 02:09:14;;;;;;;6.70;2.70;;;15.20;99.90;;;;;;5015520;28;20238;-81
2022/10/24 02:11:43;;;;;;;5.70;2.73;;;15.30;99.90;;;;;;5028457;28;20210;-79
2022/10/24 02:14:19;;;;;;;7.60;3.20;;;15.30;99.90;;;;;;5023012;28;20202;-81
2022/10/24 02:16:46;;;;;;;8.87;3.20;;;15.30;99.90;;;;;;5020926;28;20613;-80
2022/10/24 02:19:23;;;;;;;6.33;2.97;;;15.30;99.90;;;;;;5024719;28;20230;-79
2022/10/24 02:22:00;;;;;;;8.20;3.27;;;15.30;99.90;;;;;;5027689;28;20288;-79
2022/10/24 02:24:51;;;;;;;12.83;3.40;;;15.20;99.90;;;;;;5031175;28;20600;-80
2022/10/24 02:27:23;;;;;;;9.57;2.83;;;15.30;99.90;;;;;;5027744;28;20201;-81
2022/10/24 02:29:56;;;;;;;8.60;3.43;;;15.20;99.90;;;;;;5026190;28;20751;-80
2022/10/24 02:32:32;;;;;;;7.90;3.33;;;15.20;99.90;;;;;;5033073;28;20625;-80
2022/10/24 02:35:01;;;;;;;11.97;3.20;;;15.20;99.90;;;;;;5027503;28;20323;-80
2022/10/24 02:37:30;;;;;;;8.70;3.10;;;15.30;99.90;;;;;;5023346;28;20225;-80
2022/10/24 02:39:59;;;;;;;15.03;3.20;;;15.30;99.90;;;;;;5024543;28;20210;-80
2022/10/24 02:42:27;;;;;;;6.80;3.30;;;15.30;99.90;;;;;;5026201;28;20211;-79
2022/10/24 02:44:55;;;;;;;10.67;3.63;;;15.30;99.90;;;;;;5033416;28;20257;-79
2022/10/24 02:47:24;;;;;;;10.17;2.97;;;15.60;99.90;;;;;;5025259;28;20226;-79
2022/10/24 02:49:51;;;;;;;12.60;3.43;;;15.30;99.90;;;;;;5023974;28;20257;-78
2022/10/24 02:52:19;;;;;;;5.67;3.23;;;15.30;99.90;;;;;;5024339;28;20289;-79
2022/10/24 02:54:46;;;;;;;8.97;3.10;;;15.30;99.90;;;;;;5021806;28;20628;-80
2022/10/24 02:57:14;;;;;;;7.43;3.33;;;15.20;99.90;;;;;;5017713;28;20234;-80
2022/10/24 02:59:40;;;;;;;9.03;3.37;;;15.30;99.90;;;;;;5026201;28;20270;-80
2022/10/24 03:02:07;;;;;;;7.47;2.63;;;15.20;99.90;;;;;;5028050;28;20206;-80
2022/10/24 03:04:34;;;;;;;10.90;3.13;;;15.20;99.90;;;;;;5025161;28;20320;-80
2022/10/24 03:07:01;;;;;;;6.83;2.83;;;15.30;99.90;;;;;;5022315;28;20210;-80
2022/10/24 03:09:27;;;;;;;7.70;2.73;;;15.20;99.90;;;;;;5021819;28;20201;-80
2022/10/24 03:11:54;;;;;;;6.10;2.90;;;15.50;99.90;;;;;;5029913;28;20214;-79
2022/10/24 03:14:21;;;;;;;10.10;2.70;;;15.20;99.90;;;;;;5024001;28;20575;-80
2022/10/24 03:16:48;;;;;;;7.37;2.77;;;15.30;99.90;;;;;;5024605;28;20243;-80
2022/10/24 03:19:15;;;;;;;6.77;2.43;;;15.50;99.90;;;;;;5022814;28;20241;-80
2022/10/24 03:21:42;;;;;;;7.13;2.83;;;15.30;99.90;;;;;;5024787;28;20328;-79
2022/10/24 03:24:09;;;;;;;6.60;2.20;;;15.30;99.90;;;;;;5047433;28;20293;-79
2022/10/24 03:26:36;;;;;;;5.40;2.30;;;15.60;99.90;;;;;;5023644;28;20559;-78
2022/10/24 03:29:02;;;;;;;5.77;2.33;;;15.30;99.90;;;;;;5021159;28;20260;-80
2022/10/24 03:31:30;;;;;;;7.40;2.60;;;15.90;99.90;;;;;;5021586;28;20292;-79
2022/10/24 03:33:57;;;;;;;5.17;2.40;;;15.50;99.90;;;;;;5024052;28;20601;-80
2022/10/24 03:36:25;;;;;;;7.03;2.20;;;15.50;99.90;;;;;;5025437;28;20225;-80
2022/10/24 03:38:51;;;;;;;5.10;2.30;;;15.50;99.90;;;;;;5018875;28;20755;-79
2022/10/24 03:41:18;;;;;;;6.63;2.30;;;15.50;99.90;;;;;;5024215;28;20217;-80
2022/10/24 03:43:45;;;;;;;4.00;1.93;;;15.60;99.90;;;;;;5027279;28;20542;-80
2022/10/24 03:46:12;;;;;;;4.47;2.13;;;15.60;99.90;;;;;;5020989;28;20287;-80
2022/10/24 03:48:38;;;;;;;5.43;2.20;;;15.60;99.90;;;;;;5018895;28;20214;-80
2022/10/24 03:51:05;;;;;;;7.80;2.40;;;15.70;99.90;;;;;;5022609;28;20228;-80
2022/10/24 03:53:32;;;;;;;6.57;2.13;;;16.10;99.90;;;;;;5027192;28;20301;-80
2022/10/24 03:55:59;;;;;;;4.67;1.77;;;15.30;99.90;;;;;;5021158;28;20275;-80
2022/10/24 03:58:26;;;;;;;5.47;2.10;;;16.20;99.90;;;;;;5028530;28;20636;-80
2022/10/24 04:00:55;;;;;;;4.50;1.83;;;15.60;99.90;;;;;;5029555;28;20745;-80
2022/10/24 04:03:23;;;;;;;8.37;2.33;;;15.80;99.90;;;;;;5028236;28;20612;-81
2022/10/24 04:05:51;;;;;;;11.32;2.50;;;15.70;99.90;;;;;;5024210;28;20693;-81
2022/10/24 04:08:18;;;;;;;7.23;2.40;;;15.70;99.90;;;;;;5026087;28;20307;-80
2022/10/24 04:10:45;;;;;;;5.23;1.90;;;15.80;99.90;;;;;;5022303;28;20217;-81
2022/10/24 04:13:11;;;;;;;4.00;2.00;;;15.70;99.90;;;;;;5025100;28;20207;-80
2022/10/24 04:15:38;;;;;;;7.90;1.95;;;15.70;99.90;;;;;;5022119;28;20813;-81
2022/10/24 04:18:07;;;;;;;13.68;2.47;;;15.70;99.90;;;;;;5026939;28;20628;-81
2022/10/24 04:20:34;;;;;;;7.83;2.03;;;15.70;99.90;;;;;;5022376;28;20289;-81
2022/10/24 04:23:01;;;;;;;6.03;1.88;;;15.70;99.90;;;;;;5044701;28;20198;-81
2022/10/24 04:25:30;;;;;;;6.07;2.03;;;15.70;99.90;;;;;;5020333;28;20672;-81
2022/10/24 04:27:57;;;;;;;6.73;2.07;;;15.70;99.90;;;;;;5024115;28;20217;-80
2022/10/24 04:30:24;;;;;;;4.53;1.70;;;15.70;99.90;;;;;;5019295;28;20562;-80
2022/10/24 04:32:51;;;;;;;6.83;1.70;;;15.70;99.90;;;;;;5029446;28;20249;-81
2022/10/24 04:35:18;;;;;;;5.60;1.60;;;15.80;99.90;;;;;;5029268;28;20626;-80
2022/10/24 04:37:44;;;;;;;7.53;1.90;;;15.70;99.90;;;;;;5047792;28;20600;-81
2022/10/24 04:40:11;;;;;;;10.88;1.70;;;15.70;99.90;;;;;;5018882;28;20726;-81
2022/10/24 04:42:39;;;;;;;3.78;1.70;;;15.70;99.90;;;;;;5024348;28;20206;-81
2022/10/24 04:45:06;;;;;;;4.50;1.70;;;15.70;99.90;;;;;;5052314;28;20260;-79
2022/10/24 04:47:33;;;;;;;6.38;1.85;;;15.70;99.90;;;;;;5024264;28;20693;-81
2022/10/24 04:50:00;;;;;;;7.65;1.67;;;15.70;99.90;;;;;;5020437;28;20225;-80
2022/10/24 04:52:27;;;;;;;7.85;1.80;;;15.70;99.90;;;;;;5026144;28;20650;-81
2022/10/24 04:54:54;;;;;;;5.00;1.47;;;15.70;99.90;;;;;;5017071;28;20206;-81
2022/10/24 04:57:21;;;;;;;4.13;1.80;;;15.70;99.90;;;;;;5028674;28;20248;-80
2022/10/24 04:59:47;;;;;;;9.05;1.90;;;15.70;99.90;;;;;;5019445;28;20215;-81
2022/10/24 05:02:14;;;;;;;4.30;1.90;;;15.60;99.90;;;;;;5032335;28;20256;-81
2022/10/24 05:04:41;;;;;;;7.33;2.17;;;15.60;99.90;;;;;;5026500;28;20214;-81
2022/10/24 05:07:08;;;;;;;6.10;1.90;;;15.60;99.90;;;;;;5017491;28;20293;-81
2022/10/24 05:09:34;;;;;;;7.37;1.80;;;15.80;99.90;;;;;;5025045;28;20220;-80
2022/10/24 05:12:01;;;;;;;9.67;2.27;;;15.60;99.90;;;;;;5027710;28;20297;-80
2022/10/24 05:14:28;;;;;;;7.07;1.80;;;15.60;99.90;;;;;;5023574;28;20289;-80
2022/10/24 05:16:55;;;;;;;5.73;2.30;;;15.50;99.90;;;;;;5023165;28;20241;-81
2022/10/24 05:19:25;;;;;;;10.30;1.97;;;15.50;99.90;;;;;;5026086;28;20217;-80
2022/10/24 05:21:51;;;;;;;6.13;1.83;;;15.50;99.90;;;;;;5017571;28;20301;-80
2022/10/24 05:24:18;;;;;;;6.57;1.83;;;15.70;99.90;;;;;;5024647;28;20300;-80
2022/10/24 05:26:45;;;;;;;5.43;1.70;;;15.50;99.90;;;;;;5013744;28;20203;-81
2022/10/24 05:29:11;;;;;;;4.50;1.70;;;15.40;99.90;;;;;;5027897;28;20213;-81
2022/10/24 05:31:39;;;;;;;6.57;1.97;;;15.40;99.90;;;;;;5023863;28;20202;-79
2022/10/24 05:34:05;;;;;;;4.27;1.90;;;15.40;99.90;;;;;;5022949;28;20331;-81
2022/10/24 05:36:32;;;;;;;4.10;1.88;;;15.40;99.90;;;;;;5010076;28;20313;-79
2022/10/24 05:38:59;;;;;;;6.07;2.05;;;15.50;99.90;;;;;;5020867;28;20674;-80
2022/10/24 05:41:25;;;;;;;6.55;2.10;;;15.40;99.90;;;;;;5018092;28;20291;-80
2022/10/24 05:43:52;;;;;;;5.97;2.10;;;15.60;99.90;;;;;;5020577;28;20653;-81
2022/10/24 05:46:20;;;;;;;3.60;1.70;;;15.60;99.90;;;;;;5019914;28;20218;-80
2022/10/24 05:48:47;;;;;;;20.63;3.47;;;15.60;99.90;;;;;;5022708;28;20645;-80
2022/10/24 05:51:14;;;;;;;8.13;2.67;;;15.60;99.90;;;;;;5017636;28;20321;-81
2022/10/24 05:53:40;;;;;;;3.65;1.48;;;15.70;99.90;;;;;;5019422;28;20213;-81
2022/10/24 05:56:07;;;;;;;7.05;2.03;;;15.70;99.90;;;;;;5019380;28;20662;-80
2022/10/24 05:58:34;;;;;;;8.68;2.03;;;15.70;99.90;;;;;;5026738;28;20280;-81
2022/10/24 06:01:01;;;;;;;6.57;1.73;;;15.80;99.90;;;;;;5022915;28;20213;-83
2022/10/24 06:03:28;;;;;;;3.85;1.73;;;15.70;99.90;;;;;;5017982;28;20214;-81
2022/10/24 06:05:55;;;;;;;6.63;1.80;;;15.80;99.90;;;;;;5033144;28;20225;-80
2022/10/24 06:08:22;;;;;;;7.47;2.13;;;15.80;99.90;;;;;;5023886;28;20348;-81
2022/10/24 06:10:50;;;;;;;8.00;2.00;;;16.10;99.90;;;;;;5028177;28;20252;-81
2022/10/24 06:13:17;;;;;;;4.47;1.90;;;15.80;99.90;;;;;;5023454;28;20272;-81
2022/10/24 06:15:44;;;;;;;7.20;1.80;;;15.80;99.90;;;;;;5029249;28;20271;-82
2022/10/24 06:18:11;;;;;;;6.25;1.77;;;15.80;99.90;;;;;;5027071;28;20234;-82
2022/10/24 06:20:38;;;;;;;6.78;2.28;;;15.80;99.90;;;;;;5021715;28;20218;-81
2022/10/24 06:23:05;;;;;;;5.20;2.15;;;15.80;99.90;;;;;;5025287;28;21224;-81
2022/10/24 06:25:32;;;;;;;6.05;1.90;;;15.80;99.90;;;;;;5026662;28;20213;-82
2022/10/24 06:27:59;;;;;;;4.63;2.08;;;15.70;99.90;;;;;;5020023;28;20214;-80
2022/10/24 06:30:26;;;;;;;8.38;1.80;;;15.70;99.90;;;;;;5024157;28;20202;-80
2022/10/24 06:32:53;;;;;;;4.88;1.98;;;15.70;99.90;;;;;;5022470;28;20256;-81
2022/10/24 06:35:20;;;;;;;8.00;1.55;;;15.80;99.90;;;;;;5025542;28;20256;-82
2022/10/24 06:37:47;;;;;;;5.65;1.70;;;15.80;99.90;;;;;;5021510;28;20234;-81
2022/10/24 06:40:15;;;;;;;9.05;1.85;;;15.80;99.90;;;;;;5027224;28;20209;-81
2022/10/24 06:42:42;;;;;;;6.25;2.08;;;15.70;99.90;;;;;;5022622;28;20293;-82
2022/10/24 06:45:09;;;;;;;5.72;2.03;;;15.40;99.90;;;;;;5026406;28;20240;-82
2022/10/24 06:47:36;;;;;;;9.52;1.90;;;15.80;99.90;;;;;;5029126;28;20210;-80
2022/10/24 06:50:03;;;;;;;5.10;1.70;;;15.80;99.90;;;;;;5028404;28;20220;-81
2022/10/24 06:52:30;;;;;;;10.18;1.85;;;15.70;99.90;;;;;;5022606;28;20603;-82
2022/10/24 06:54:57;;;;;;;8.03;2.00;;;15.80;99.90;;;;;;5024786;28;20214;-82
2022/10/24 06:57:23;;;;;;;4.78;2.08;;;15.90;99.90;;;;;;5025678;28;20320;-79
2022/10/24 06:59:51;;;;;;;6.07;1.73;;;15.90;99.90;;;;;;5028085;28;20202;-80
2022/10/24 07:02:20;;;;;;;9.50;1.75;;;15.90;99.90;;;;;;5023990;28;20206;-82
2022/10/24 07:04:47;;;;;;;6.68;1.50;;;15.90;99.90;;;;;;5027438;28;20298;-81
2022/10/24 07:07:19;;;;;;;10.95;1.70;;;16.10;99.90;;;;;;5027875;28;20219;-79
2022/10/24 07:09:53;;;;;;;8.52;1.80;;;16.20;99.90;;;;;;5031504;28;20206;-80
2022/10/24 07:12:21;;;;;;;5.28;1.88;;;16.10;99.90;;;;;;5031780;28;20305;-80
2022/10/24 07:14:48;;;;;;;6.95;1.55;;;16.30;99.90;;;;;;5026918;28;20583;-80
2022/10/24 07:17:15;;;;;;;4.20;1.70;;;16.30;99.90;;;;;;5026802;28;20222;-82
2022/10/24 07:19:43;;;;;;;10.25;2.10;;;16.40;99.90;;;;;;5026026;28;20320;-81
2022/10/24 07:22:10;;;;;;;11.20;2.15;;;16.40;99.90;;;;;;5028703;28;20741;-82
2022/10/24 07:24:37;;;;;;;10.57;1.92;;;16.50;99.90;;;;;;5027734;28;20297;-80
2022/10/24 07:27:04;;;;;;;6.95;1.98;;;16.50;99.90;;;;;;5026989;28;20213;-81
2022/10/24 07:29:30;;;;;;;9.98;1.88;;;16.50;99.90;;;;;;5027400;28;20260;-82
2022/10/24 07:31:58;;;;;;;5.32;2.03;;;16.60;99.90;;;;;;5031425;28;20205;-81
2022/10/24 07:34:25;;;;;;;5.78;1.60;;;16.50;99.90;;;;;;5028213;28;20236;-80
2022/10/24 07:36:52;;;;;;;8.50;1.88;;;16.50;99.90;;;;;;5027013;28;20210;-82
2022/10/24 07:39:18;;;;;;;8.10;2.47;;;16.50;99.90;;;;;;5026225;28;20667;-79
2022/10/24 07:41:45;;;;;;;8.85;1.90;;;16.60;99.90;;;;;;5024863;28;20212;-81
2022/10/24 07:44:12;;;;;;;7.53;1.70;;;17.50;99.90;;;;;;5023945;28;20552;-82
2022/10/24 07:46:40;;;;;;;10.20;2.22;;;16.60;99.90;;;;;;5031590;28;20201;-80
2022/10/24 07:49:08;;;;;;;9.57;2.00;;;16.60;99.90;;;;;;5023241;28;20217;-82
2022/10/24 07:51:35;;;;;;;7.47;1.70;;;16.70;99.90;;;;;;5025390;28;20261;-81
2022/10/24 07:54:03;;;;;;;11.65;1.90;;;16.70;99.90;;;;;;5023623;28;20232;-80
2022/10/24 07:56:29;;;;;;;8.38;2.13;;;16.70;99.90;;;;;;5023634;28;20217;-81
2022/10/24 07:58:57;;;;;;;9.95;1.58;;;16.10;99.90;;;;;;5025197;28;20226;-80
2022/10/24 08:01:25;;;;;;;6.22;1.75;;;16.70;99.90;;;;;;5023098;28;20640;-82
2022/10/24 08:03:52;;;;;;;10.85;2.45;;;16.70;99.90;;;;;;5055634;28;20309;-82
2022/10/24 08:06:21;;;;;;;7.60;1.90;;;16.40;99.90;;;;;;5021223;28;20673;-81
2022/10/24 08:08:48;;;;;;;9.18;1.90;;;16.70;99.90;;;;;;5028587;28;20831;-80
2022/10/24 08:11:18;;;;;;;10.13;1.90;;;16.80;99.90;;;;;;5027299;28;20210;-81
2022/10/24 08:13:45;;;;;;;9.88;2.13;;;16.80;99.90;;;;;;5028642;28;20255;-83
2022/10/24 08:16:13;;;;;;;10.27;2.17;;;16.90;99.90;;;;;;5024400;28;20605;-81
2022/10/24 08:18:40;;;;;;;8.95;1.73;;;17.00;99.90;;;;;;5027093;28;20256;-81
2022/10/24 08:21:09;;;;;;;6.90;2.00;;;17.10;99.90;;;;;;5023471;28;20357;-80
2022/10/24 08:23:42;;;;;;;6.95;1.77;;;17.20;99.90;;;;;;5055017;28;20245;-82
2022/10/24 08:26:13;;;;;;;8.45;1.77;;;17.20;99.90;;;;;;5018693;28;20288;-81
2022/10/24 08:28:41;;;;;;;6.90;1.73;;;17.30;99.90;;;;;;5026042;28;20225;-81
2022/10/24 08:31:11;;;;;;;9.18;2.10;;;17.40;99.90;;;;;;5027169;28;20584;-82
2022/10/24 08:33:38;;;;;;;6.68;1.83;;;17.50;99.90;;;;;;5037834;28;20573;-81
2022/10/24 08:36:24;;;;;;;8.25;1.80;;;17.70;99.90;;;;;;5024033;28;20305;-80
2022/10/24 08:38:51;;;;;;;5.78;1.77;;;17.50;99.90;;;;;;5022055;28;20633;-82
2022/10/24 08:41:56;;;;;;;7.10;1.33;;;17.50;99.90;;;;;;5025199;28;20208;-80
2022/10/24 08:44:34;;;;;;;5.82;1.45;;;17.50;99.90;;;;;;5028722;28;20212;-82
2022/10/24 08:47:02;;;;;;;8.07;1.92;;;17.50;99.90;;;;;;5023870;28;20240;-82
2022/10/24 08:49:46;;;;;;;5.10;1.60;;;17.80;99.90;;;;;;5027583;28;20252;-82
2022/10/24 08:52:33;;;;;;;6.38;2.10;;;17.50;99.90;;;;;;5024889;28;20325;-82
2022/10/24 08:55:10;;;;;;;5.90;1.50;;;17.60;99.90;;;;;;5020414;28;20206;-80
2022/10/24 08:57:59;;;;;;;7.60;1.48;;;17.60;99.90;;;;;;5019595;28;20604;-80
2022/10/24 09:00:35;;;;;;;10.70;2.83;;;17.60;99.90;;;;;;5025297;28;20586;-81
2022/10/24 09:03:12;;;;;;;7.53;1.75;;;18.00;99.90;;;;;;5024889;28;20255;-82
2022/10/24 09:05:48;;;;;;;8.07;2.00;;;17.60;99.90;;;;;;5026299;28;20571;-84
2022/10/24 09:08:38;;;;;;;8.68;1.33;;;17.60;99.90;;;;;;5025608;28;20209;-81
2022/10/24 09:11:06;;;;;;;8.32;1.75;;;17.60;99.90;;;;;;5022616;28;20238;-82
2022/10/24 09:13:36;;;;;;;6.72;1.65;;;17.60;99.90;;;;;;5024535;28;20734;-81
2022/10/24 09:16:04;;;;;;;8.52;1.85;;;17.60;99.90;;;;;;5027413;28;20233;-82
2022/10/24 09:18:40;;;;;;;7.88;1.80;;;17.60;99.90;;;;;;5022282;28;20773;-82
2022/10/24 09:21:11;;;;;;;5.20;1.45;;;17.80;99.90;;;;;;5025504;28;20743;-83
2022/10/24 09:23:38;;;;;;;5.60;1.50;;;17.60;99.90;;;;;;5026452;28;20648;-83
2022/10/24 09:26:17;;;;;;;7.68;1.42;;;17.90;99.90;;;;;;5022480;28;20214;-81
2022/10/24 09:28:44;;;;;;;7.75;1.65;;;18.00;99.90;;;;;;5040322;28;20212;-81
2022/10/24 09:31:20;;;;;;;6.00;1.55;;;17.90;99.90;;;;;;5025834;28;20241;-83
2022/10/24 09:33:49;;;;;;;7.25;1.65;;;17.90;99.90;;;;;;5019447;28;20233;-83
2022/10/24 09:36:19;;;;;;;8.38;1.52;;;17.70;99.90;;;;;;5018947;28;20517;-81
2022/10/24 09:38:47;;;;;;;6.55;1.98;;;17.80;99.90;;;;;;5029691;28;20325;-82
2022/10/24 09:41:24;;;;;;;4.45;1.77;;;17.70;99.90;;;;;;5027915;28;20378;-81
2022/10/24 09:43:59;;;;;;;8.20;1.75;;;17.70;99.90;;;;;;5025137;28;20340;-81
2022/10/24 09:46:37;;;;;;;5.10;1.73;;;17.80;99.90;;;;;;5027566;28;20214;-80
2022/10/24 09:49:21;;;;;;;5.13;1.30;;;17.60;99.90;;;;;;5031984;28;20249;-82
2022/10/24 09:52:18;;;;;;;5.88;1.20;;;17.70;99.90;;;;;;5028614;28;20260;-80
2022/10/24 09:54:46;;;;;;;5.75;0.98;;;17.70;99.90;;;;;;5022817;28;20693;-80
2022/10/24 09:57:16;;;;;;;10.25;1.95;;;17.70;99.90;;;;;;5030732;28;20289;-80
2022/10/24 09:59:44;;;;;;;4.78;1.60;;;17.60;99.90;;;;;;5026316;28;20221;-81
2022/10/24 10:02:36;;;;;;;6.03;1.90;;;17.50;99.90;;;;;;5025806;28;20743;-81
2022/10/24 10:05:03;;;;;;;4.90;1.40;;;17.60;99.90;;;;;;5023760;28;20234;-82
2022/10/24 10:07:34;;;;;;;5.97;1.63;;;17.70;99.90;;;;;;5029310;28;20217;-81
2022/10/24 10:10:04;;;;;;;5.82;2.00;;;17.80;99.90;;;;;;5027746;28;21323;-81
2022/10/24 10:12:34;;;;;;;4.82;1.30;;;17.90;99.90;;;;;;5031818;28;20620;-81
2022/10/24 10:15:21;;;;;;;6.47;1.30;;;17.90;99.90;;;;;;5029236;28;20217;-80
2022/10/24 10:17:51;;;;;;;4.85;1.50;;;18.00;99.90;;;;;;5024024;28;20324;-81
2022/10/24 10:20:27;;;;;;;5.55;1.15;;;18.10;99.90;;;;;;5029078;28;20230;-80
2022/10/24 10:22:54;;;;;;;5.43;1.40;;;18.20;99.90;;;;;;5028901;28;20218;-81
2022/10/24 10:25:32;;;;;;;6.03;1.70;;;18.10;99.90;;;;;;5028922;28;20209;-80
2022/10/24 10:27:59;;;;;;;3.55;1.77;;;18.20;99.90;;;;;;5029047;28;20282;-81
2022/10/24 10:30:28;;;;;;;3.92;1.35;;;18.20;99.90;;;;;;5029175;28;20214;-81
2022/10/24 10:33:12;;;;;;;4.65;1.50;;;18.10;99.90;;;;;;5021323;28;20683;-79
2022/10/24 10:35:57;;;;;;;2.55;1.10;;;17.90;99.90;;;;;;5030890;28;20245;-79
2022/10/24 10:38:43;;;;;;;4.18;1.52;;;17.90;99.90;;;;;;5029622;28;20646;-80
2022/10/24 10:41:13;;;;;;;7.70;1.60;;;17.90;99.90;;;;;;5030170;28;20667;-80
2022/10/24 10:43:51;;;;;;;7.20;2.05;;;17.00;99.90;;;;;;5025074;28;20285;-80
2022/10/24 10:46:47;;;;;;;4.70;1.40;;;17.60;99.90;;;;;;5028410;28;20255;-81
2022/10/24 10:49:26;;;;;;;4.38;1.60;;;17.80;99.90;;;;;;5029273;28;20677;-80
2022/10/24 10:51:59;;;;;;;4.93;1.42;;;17.90;99.90;;;;;;5027545;28;20233;-81
2022/10/24 10:54:29;;;;;;;7.70;1.60;;;17.90;99.90;;;;;;5027214;28;20229;-82
2022/10/24 10:57:06;;;;;;;6.68;1.55;;;17.90;99.90;;;;;;5025019;28;20210;-81
2022/10/24 10:59:39;;;;;;;7.63;1.30;;;18.00;99.90;;;;;;5030474;28;20240;-81
2022/10/24 11:02:41;;;;;;;4.63;1.55;;;17.90;99.90;;;;;;5024037;28;20218;-81
2022/10/24 11:05:18;;;;;;;6.40;1.70;;;17.90;99.90;;;;;;5026523;28;20217;-82
2022/10/24 11:07:54;;;;;;;4.32;1.40;;;18.00;99.90;;;;;;5028656;28;20202;-82
2022/10/24 11:10:26;;;;;;;4.93;1.80;;;18.00;99.90;;;;;;5025631;28;20249;-81
2022/10/24 11:12:57;;;;;;;3.97;1.50;;;17.90;99.90;;;;;;5020583;28;20217;-82
2022/10/24 11:15:33;;;;;;;6.75;1.67;;;17.90;99.90;;;;;;5023850;28;20733;-84
2022/10/24 11:18:21;;;;;;;3.78;1.40;;;18.10;99.90;;;;;;5021403;28;20221;-81
2022/10/24 11:21:13;;;;;;;7.05;1.33;;;18.20;99.90;;;;;;5026024;28;20801;-82
2022/10/24 11:23:55;;;;;;;5.78;1.63;;;18.30;99.90;;;;;;5028845;28;20210;-82
2022/10/24 11:27:02;;;;;;;5.07;1.35;;;18.30;99.90;;;;;;5021226;28;20210;-84
2022/10/24 11:29:44;;;;;;;1.92;1.10;;;18.40;99.90;;;;;;5015201;28;20696;-80
2022/10/24 11:32:30;;;;;;;3.95;1.42;;;18.40;99.90;;;;;;5028085;28;20229;-82
2022/10/24 11:35:13;;;;;;;7.63;1.65;;;18.40;99.90;;;;;;5048740;28;20240;-80
2022/10/24 11:37:43;;;;;;;6.03;1.40;;;18.30;99.90;;;;;;5024359;28;20531;-79
2022/10/24 11:40:25;;;;;;;5.45;1.60;;;18.30;99.90;;;;;;5022287;28;20248;-81
2022/10/24 11:43:05;;;;;;;9.98;1.95;;;18.40;99.90;;;;;;5017909;28;20304;-81
2022/10/24 11:45:55;;;;;;;3.15;1.20;;;18.50;99.90;;;;;;5019607;28;20561;-83
2022/10/24 11:48:45;;;;;;;7.93;1.45;;;18.50;99.90;;;;;;5016259;28;20346;-81
2022/10/24 11:51:14;;;;;;;5.63;1.70;;;18.50;99.90;;;;;;5021231;28;20310;-82
2022/10/24 11:53:54;;;;;;;5.28;1.23;;;18.60;99.90;;;;;;5027249;28;20214;-78
2022/10/24 11:56:23;;;;;;;5.72;1.42;;;18.60;99.90;;;;;;5024809;28;20214;-81
2022/10/24 11:58:53;;;;;;;6.15;1.83;;;18.60;99.90;;;;;;5044473;28;20269;-81
2022/10/24 12:01:34;;;;;;;6.45;1.70;;;18.60;99.90;;;;;;5046057;28;20210;-81
2022/10/24 12:04:15;;;;;;;4.00;1.30;;;18.70;99.90;;;;;;5018692;28;20354;-81
2022/10/24 12:07:05;;;;;;;4.93;1.60;;;18.80;99.90;;;;;;5056818;28;20256;-82
2022/10/24 12:10:06;;;;;;;6.78;1.70;;;18.80;99.90;;;;;;5026278;28;21188;-82
2022/10/24 12:12:54;;;;;;;4.85;1.40;;;18.80;99.90;;;;;;5026320;28;20706;-81
2022/10/24 12:15:35;;;;;;;6.18;1.70;;;18.70;99.90;;;;;;5025789;28;20763;-80
2022/10/24 12:18:25;;;;;;;7.95;1.85;;;18.70;99.90;;;;;;5055919;28;20255;-83
2022/10/24 12:21:00;;;;;;;3.92;1.50;;;18.50;99.90;;;;;;5018675;28;20313;-82
2022/10/24 12:23:27;;;;;;;7.57;2.03;;;18.40;99.90;;;;;;5019426;28;20247;-80
2022/10/24 12:26:23;;;;;;;7.57;1.90;;;18.30;99.90;;;;;;5022385;28;20212;-82
2022/10/24 12:28:54;;;;;;;4.38;1.52;;;18.40;99.90;;;;;;5022779;28;20205;-79
2022/10/24 12:31:28;;;;;;;3.88;1.77;;;18.00;99.90;;;;;;5023416;28;20229;-81
2022/10/24 12:34:21;;;;;;;5.03;1.90;;;17.90;99.90;;;;;;5015902;28;20238;-81
2022/10/24 12:37:02;;;;;;;6.18;2.10;;;17.80;99.90;;;;;;5023553;28;20590;-80
2022/10/24 12:39:34;;;;;;;8.10;1.90;;;17.70;99.90;;;;;;5019967;28;20619;-79
2022/10/24 12:42:11;;;;;;;4.55;1.73;;;17.70;99.90;;;;;;5023387;28;20202;-78
2022/10/24 12:44:40;;;;;;;4.82;1.80;;;17.30;99.90;;;;;;5024713;28;20220;-79
2022/10/24 12:47:25;;;;;;;5.25;1.92;;;17.90;99.90;;;;;;5021718;28;20619;-80
2022/10/24 12:49:53;;;;;;;3.65;1.50;;;17.90;99.90;;;;;;5022994;28;20224;-80
2022/10/24 12:52:48;;;;;;;5.40;1.50;;;17.90;99.90;;;;;;5027142;28;20364;-78
2022/10/24 12:55:37;;;;;;;2.58;1.50;;;17.90;99.90;;;;;;5025182;28;20275;-79
2022/10/24 12:58:27;;;;;;;3.80;1.95;;;17.90;99.90;;;;;;5026970;28;20312;-83
2022/10/24 13:00:59;;;;;;;4.60;1.40;;;17.80;99.90;;;;;;5020538;28;20232;-80
2022/10/24 13:03:47;;;;;;;3.85;1.48;;;17.70;99.90;;;;;;5033526;28;20206;-81
2022/10/24 13:06:26;;;;;;;2.50;1.63;;;17.70;99.90;;;;;;5026735;28;20638;-82
2022/10/24 13:09:27;;;;;;;5.15;1.48;;;17.70;99.90;;;;;;5033386;28;20210;-79
2022/10/24 13:12:20;;;;;;;2.45;1.27;;;17.90;99.90;;;;;;5021539;28;20208;-79